Selah — WDF2234 — position and weather

sailwx.info

Track history (hours):
 
Tides and Currents Weather Stations Pressure Air Temp Water Temp Dewpoint Dewpoint Depression Visibility Wind Speed Wind Dir Waves Ship Positions

Selah

Owner: Scadron-Wattles, Stuart D, Seattle, WA. More information available from US FCC via Universal Licensing System.

Last reported at 2018-Jul-16 20:16 UTC. Time now 2018-Jul-16 22:11 UTC.
Position N 47°38' W 122°24'.

Length 12 m.

Type: Sailing vessel. MMSI: 367426360.

Date/timePositionNaut miles runAvg speedWind from/ knotsBaromVisibWave heightAir tempDewpointWater temp
2018-Jul-16 20:16N 47°38' W 122°24'0 1.3
2018-Jul-16 20:00N 47°37' W 122°24'0 0.3
2018-Jul-16 19:30N 47°38' W 122°24'  
2018-Jul-14 02:28N 47°37' W 122°27'2 0.3
2018-Jul-13 20:27N 47°37' W 122°30'2 3.7
2018-Jul-13 20:00N 47°37' W 122°28'2 4.6
2018-Jul-13 19:30N 47°38' W 122°25'1 1.5
2018-Jul-13 18:58N 47°38' W 122°24'  
2018-Jul-09 22:32N 47°38' W 122°24'0 0.7
2018-Jul-09 22:30N 47°38' W 122°24'2 3.6
2018-Jul-09 22:00N 47°36' W 122°25'3 6.9
2018-Jul-09 21:30N 47°34' W 122°29'2 0.7
2018-Jul-09 18:42N 47°32' W 122°30'1 3.9
2018-Jul-09 18:30N 47°32' W 122°30'0 0.0
2018-Jul-09 18:00N 47°32' W 122°30'3 5.0
2018-Jul-09 17:28N 47°29' W 122°30'7 7.0
2018-Jul-09 16:28N 47°22' W 122°32'2 2.3
2018-Jul-09 15:30N 47°21' W 122°29'2 3.0
2018-Jul-09 14:59N 47°22' W 122°27'0 0.0
2018-Jul-08 00:36N 47°22' W 122°27'0 0.0
2018-Jul-08 00:30N 47°22' W 122°27'0 0.0
2018-Jul-08 00:00N 47°22' W 122°27'1 2.6
2018-Jul-07 23:30N 47°22' W 122°29'2 3.6
2018-Jul-07 23:00N 47°21' W 122°26'3 5.2
2018-Jul-07 22:30N 47°23' W 122°23'3 5.2
2018-Jul-07 22:00N 47°25' W 122°23'3 5.9
2018-Jul-07 21:30N 47°28' W 122°25'3 5.4
2018-Jul-07 20:58N 47°31' W 122°27'2 4.1
2018-Jul-07 20:30N 47°32' W 122°26'2 3.5
2018-Jul-07 19:59N 47°34' W 122°26'1 2.7
2018-Jul-07 19:27N 47°36' W 122°25'  
Track history (hours):
 
Tides and Currents Weather Stations Pressure Air Temp Water Temp Dewpoint Dewpoint Depression Visibility Wind Speed Wind Dir Waves Ship Positions

Selah

Owner: Scadron-Wattles, Stuart D, Seattle, WA. More information available from US FCC via Universal Licensing System.

Last reported at 2018-Jul-16 20:16 UTC. Time now 2018-Jul-16 22:11 UTC.
Position N 47°38' W 122°24'.

Length 12 m.

Type: Sailing vessel. MMSI: 367426360.

Date/timePositionNaut miles runAvg speedWind from/ knotsBaromVisibWave heightAir tempDewpointWater temp
2018-Jul-16 20:16N 47°38' W 122°24'0 1.3
2018-Jul-16 20:00N 47°37' W 122°24'0 0.3
2018-Jul-16 19:30N 47°38' W 122°24'  
2018-Jul-14 02:28N 47°37' W 122°27'2 0.3
2018-Jul-13 20:27N 47°37' W 122°30'2 3.7
2018-Jul-13 20:00N 47°37' W 122°28'2 4.6
2018-Jul-13 19:30N 47°38' W 122°25'1 1.5
2018-Jul-13 18:58N 47°38' W 122°24'  
2018-Jul-09 22:32N 47°38' W 122°24'0 0.7
2018-Jul-09 22:30N 47°38' W 122°24'2 3.6
2018-Jul-09 22:00N 47°36' W 122°25'3 6.9
2018-Jul-09 21:30N 47°34' W 122°29'2 0.7
2018-Jul-09 18:42N 47°32' W 122°30'1 3.9
2018-Jul-09 18:30N 47°32' W 122°30'0 0.0
2018-Jul-09 18:00N 47°32' W 122°30'3 5.0
2018-Jul-09 17:28N 47°29' W 122°30'7 7.0
2018-Jul-09 16:28N 47°22' W 122°32'2 2.3
2018-Jul-09 15:30N 47°21' W 122°29'2 3.0
2018-Jul-09 14:59N 47°22' W 122°27'0 0.0
2018-Jul-08 00:36N 47°22' W 122°27'0 0.0
2018-Jul-08 00:30N 47°22' W 122°27'0 0.0
2018-Jul-08 00:00N 47°22' W 122°27'1 2.6
2018-Jul-07 23:30N 47°22' W 122°29'2 3.6
2018-Jul-07 23:00N 47°21' W 122°26'3 5.2
2018-Jul-07 22:30N 47°23' W 122°23'3 5.2
2018-Jul-07 22:00N 47°25' W 122°23'3 5.9
2018-Jul-07 21:30N 47°28' W 122°25'3 5.4
2018-Jul-07 20:58N 47°31' W 122°27'2 4.1
2018-Jul-07 20:30N 47°32' W 122°26'2 3.5
2018-Jul-07 19:59N 47°34' W 122°26'1 2.7
2018-Jul-07 19:27N 47°36' W 122°25'  

Dump ship's entire track history